Paonia, CO

10:28 AM MDT on September 21, 2014 (GMT -0600)
Lamborn Mesa | Change Station
CLOSE
Current Station
Personal Weather Station
Location: Paonia, CO
Elevation: 5900 ft
Nearby Weather Stations
Active Advisory: Special Statement Active Notice: Public Information Statement

Elev 5900 ft 38.86 °N, 107.59 °W | Updated 3 minutes ago

Rain
Rain
59.4 °F
Feels Like 59.4 °F
N
6.0
Wind Variable Wind from NE
Gusts 11.0 mph

Today
High -- | Low -- °F
--% Chance of Precip.
Yesterday
High -- | Low -- °F
Precip. -- in
6:57 AM 7:08 PM
Waning Crescent, 6% visible
Pressure 30.34 in
Visibility 10.0 miles
Clouds Clear
Dew Point 56 °F
Humidity 89%
Rainfall -999.00 in
Snow Depth 0 in , 0 in , 1 in
UV 4 out of 12
Pollen 5.10 out of 12
Air Quality Not available.
Flu Activity Not available.
METAR KAJZ 211615Z AUTO 14009KT 10SM RA CLR 19/15 A3034 RMK AO2 T01850153

More Conditions Fewer Conditions

Pressure 30.34 in
Visibility 10.0 miles
Clouds Clear
Dew Point 56 °F
Humidity 89%
Rainfall -999.00 in
Snow Depth 0 in , 0 in , 1 in
UV 4 out of 12
Pollen 5.10 out of 12
Air Quality Not available.
Flu Activity Not available.
METAR KAJZ 211615Z AUTO 14009KT 10SM RA CLR 19/15 A3034 RMK AO2 T01850153

More Conditions Fewer Conditions

Nowcast | as of 10:11 am MDT on September 21, 2014

at 1008 am MDT...Doppler radar indicated showers and thunderstorms across much of central and northwestern Colorado this morning. These showers and storms will bring light to moderate and occasionally heavy showers at times. Expect some ponding of water on roads. Some gusty winds will also occur as this precipitation moves through. Locations impacted include... Glenwood Springs...Vernal...Rifle...Gypsum...Carbondale...New Castle...Basalt...Silt...Palisade...Meeker...Rangely...Paonia... Parachute...Collbran...De Beque...Dinosaur...Mesa...Rio Blanco... Battlement Mesa and Naples.

×

10-Day Weather Forecast

Almanac

Astronomy

Sep. 21, 2014 Rise Set
Actual Time 6:57 AM MDT 7:08 PM MDT
Civil Twilight 6:30 AM MDT 7:35 PM MDT
Nautical Twilight 5:59 AM MDT 8:06 PM MDT
Astronomical Twilight 5:27 AM MDT 8:38 PM MDT
Moon 4:34 AM MDT 5:45 PM MDT
Length of Visible Light 13h 04m
Length of Day
12h 11m
Tomorrow will be 2m 31s shorter.
Waning Crescent, 6% of the Moon is Illuminated
Today
Waning Crescent
Sep 24
New
Oct 1
First Quarter
Oct 8
Full
Oct 15
Last Quarter

Today's Extremes

State Highs State Lows

Community

WunderPhotos

Upload Photos

1,755,183 photos uploaded!

Nearby

Snow Depth

Station Depth Elevation
Buffalo Park 0 in 9240 ft
McClure Pass 0 in 9500 ft
Lone Cone 1 in 9600 ft
Middle Fork Camp 0 in 9000 ft
Lizard Head Pass 1 in 10200 ft

Earthquake Activity

City Distance Mag. Time & Date
No recent earthquake activity has been reported nearby.
Minimum magnitude displayed is 2.5.

Coastal Water Temperatures

Place Temperature
No Stations Reporting

Nearby Weather Stations